createdAt,value
2018-12-31T00:02:19.427Z,51.60
2018-12-31T00:04:50.227Z,51.70
2018-12-31T00:07:20.723Z,51.80
2018-12-31T00:09:48.811Z,51.70
2018-12-31T00:12:16.584Z,51.70
2018-12-31T00:14:44.380Z,51.70
2018-12-31T00:17:12.156Z,51.50
2018-12-31T00:19:39.947Z,51.50
2018-12-31T00:22:07.723Z,51.60
2018-12-31T00:24:35.495Z,51.50
2018-12-31T00:27:03.283Z,51.50
2018-12-31T00:29:31.064Z,51.50
2018-12-31T00:32:01.595Z,51.60
2018-12-31T00:34:29.368Z,51.50
2018-12-31T00:36:57.164Z,51.40
2018-12-31T00:39:24.954Z,51.40
2018-12-31T00:41:52.732Z,51.40
2018-12-31T00:44:20.530Z,51.30
2018-12-31T00:46:51.074Z,51.40
2018-12-31T00:49:22.325Z,51.40
2018-12-31T00:51:50.106Z,51.40
2018-12-31T00:54:19.584Z,51.90
2018-12-31T00:56:48.470Z,51.20
2018-12-31T00:59:16.254Z,51.10
2018-12-31T01:01:44.370Z,51.10
2018-12-31T01:04:12.157Z,51.00
2018-12-31T01:06:39.931Z,51.00
2018-12-31T01:09:07.756Z,50.80
2018-12-31T01:11:35.539Z,50.90
2018-12-31T01:14:03.307Z,50.70
2018-12-31T01:16:31.107Z,51.00
2018-12-31T01:18:58.893Z,50.90
2018-12-31T01:21:27.617Z,51.00
2018-12-31T01:23:55.891Z,51.20
2018-12-31T01:26:23.668Z,50.80
2018-12-31T01:28:51.454Z,50.70
2018-12-31T01:31:19.235Z,50.80
2018-12-31T01:33:48.786Z,50.70
2018-12-31T01:36:16.624Z,50.60
2018-12-31T01:38:44.820Z,50.60
2018-12-31T01:41:12.601Z,50.80
2018-12-31T01:43:43.399Z,50.60
2018-12-31T01:46:11.180Z,50.80
2018-12-31T01:48:39.010Z,50.90
2018-12-31T01:51:11.415Z,50.90
2018-12-31T01:53:39.281Z,50.90
2018-12-31T01:56:07.083Z,51.00
2018-12-31T01:58:34.866Z,51.00
2018-12-31T02:01:02.665Z,51.00
2018-12-31T02:03:30.435Z,51.00
2018-12-31T02:05:58.391Z,51.00
2018-12-31T02:08:26.245Z,51.00
2018-12-31T02:10:54.422Z,51.10
2018-12-31T02:13:22.618Z,51.10
2018-12-31T02:15:50.399Z,51.20
2018-12-31T02:18:18.241Z,51.10
2018-12-31T02:20:46.030Z,51.10
2018-12-31T02:23:13.811Z,51.20
2018-12-31T02:25:41.604Z,51.10
2018-12-31T02:28:09.386Z,51.20
2018-12-31T02:30:37.183Z,51.10
2018-12-31T02:33:04.982Z,51.20
2018-12-31T02:35:32.751Z,51.40
2018-12-31T02:38:00.522Z,51.40
2018-12-31T02:40:31.087Z,51.30
2018-12-31T02:42:59.210Z,51.30
2018-12-31T02:45:26.999Z,51.40
2018-12-31T02:47:55.117Z,51.20
2018-12-31T02:50:22.905Z,51.20
2018-12-31T02:52:53.483Z,51.20
2018-12-31T02:55:21.269Z,51.20
2018-12-31T02:57:51.774Z,51.20
2018-12-31T03:00:22.271Z,51.20
2018-12-31T03:02:53.086Z,51.20
2018-12-31T03:05:23.763Z,51.60
2018-12-31T03:07:51.537Z,51.10
2018-12-31T03:10:22.587Z,51.00
2018-12-31T03:12:53.068Z,50.90
2018-12-31T03:15:23.773Z,51.00
2018-12-31T03:17:54.776Z,51.00
2018-12-31T03:20:25.334Z,51.00
2018-12-31T03:22:56.195Z,51.00
2018-12-31T03:25:27.138Z,51.10
2018-12-31T03:27:57.847Z,51.20
2018-12-31T03:30:28.978Z,51.20
2018-12-31T03:32:59.826Z,51.20
2018-12-31T03:35:30.328Z,51.30
2018-12-31T03:38:00.808Z,51.10
2018-12-31T03:40:31.510Z,51.00
2018-12-31T03:42:59.294Z,51.00
2018-12-31T03:45:27.109Z,51.00
2018-12-31T03:47:55.247Z,51.30
2018-12-31T03:50:26.215Z,51.20
2018-12-31T03:52:57.034Z,51.10
2018-12-31T03:55:27.564Z,51.10
2018-12-31T03:57:58.846Z,51.40
2018-12-31T04:00:26.637Z,51.30
2018-12-31T04:02:54.441Z,51.30
2018-12-31T04:05:25.568Z,51.20
2018-12-31T04:07:53.615Z,51.10
2018-12-31T04:10:21.370Z,51.40
2018-12-31T04:12:51.889Z,51.40
2018-12-31T04:15:22.429Z,51.10
2018-12-31T04:17:50.279Z,51.20
2018-12-31T04:20:21.266Z,51.20
2018-12-31T04:22:49.042Z,51.20
2018-12-31T04:25:18.037Z,51.30
2018-12-31T04:27:50.182Z,51.30
2018-12-31T04:30:19.948Z,51.40
2018-12-31T04:32:51.253Z,51.30
2018-12-31T04:35:22.102Z,51.40
2018-12-31T04:37:49.877Z,51.70
2018-12-31T04:40:18.483Z,51.70
2018-12-31T04:42:49.386Z,51.70
2018-12-31T04:45:20.201Z,51.80
2018-12-31T04:47:51.151Z,52.10
2018-12-31T04:50:22.067Z,51.70
2018-12-31T04:52:52.640Z,51.80
2018-12-31T04:55:20.433Z,51.70
2018-12-31T04:57:48.336Z,51.80
2018-12-31T05:00:16.129Z,51.60
2018-12-31T05:02:46.691Z,51.50
2018-12-31T05:05:19.667Z,51.50
2018-12-31T05:07:50.386Z,51.40
2018-12-31T05:10:21.344Z,51.30
2018-12-31T05:12:52.112Z,51.30
2018-12-31T05:15:20.970Z,51.40
2018-12-31T05:17:51.453Z,51.40
2018-12-31T05:20:21.984Z,51.40
2018-12-31T05:22:52.890Z,51.50
2018-12-31T05:25:23.333Z,51.40
2018-12-31T05:27:53.905Z,51.20
2018-12-31T05:30:25.160Z,51.20
2018-12-31T05:32:55.904Z,51.10
2018-12-31T05:35:26.745Z,51.20
2018-12-31T05:37:57.523Z,51.20
2018-12-31T05:40:25.296Z,51.20
2018-12-31T05:42:56.312Z,51.20
2018-12-31T05:45:24.444Z,51.30
2018-12-31T05:47:55.012Z,51.10
2018-12-31T05:50:22.796Z,51.60
2018-12-31T05:52:50.580Z,51.10
2018-12-31T05:55:19.271Z,51.10
2018-12-31T05:57:48.063Z,51.30
2018-12-31T06:00:15.845Z,51.20
2018-12-31T06:02:43.624Z,51.10
2018-12-31T06:05:11.405Z,51.10
2018-12-31T06:07:39.198Z,51.30
2018-12-31T06:10:07.003Z,51.20
2018-12-31T06:12:34.781Z,51.20
2018-12-31T06:15:02.571Z,51.20
2018-12-31T06:17:30.369Z,51.20
2018-12-31T06:19:58.142Z,51.30
2018-12-31T06:22:26.299Z,51.20
2018-12-31T06:24:54.086Z,51.30
2018-12-31T06:27:22.178Z,51.20
2018-12-31T06:29:49.958Z,51.20
2018-12-31T06:32:17.886Z,51.20
2018-12-31T06:34:45.679Z,51.30
2018-12-31T06:37:13.458Z,51.20
2018-12-31T06:39:41.259Z,51.20
2018-12-31T06:42:09.079Z,51.30
2018-12-31T06:44:36.867Z,51.20
2018-12-31T06:47:04.668Z,51.30
2018-12-31T06:49:32.781Z,51.40
2018-12-31T06:52:00.556Z,51.30
2018-12-31T06:54:28.347Z,51.20
2018-12-31T06:56:56.123Z,51.40
2018-12-31T06:59:26.700Z,51.20
2018-12-31T07:02:10.559Z,51.40
2018-12-31T07:10:50.240Z,51.50
2018-12-31T07:21:52.191Z,51.60
2018-12-31T07:24:20.051Z,51.20
2018-12-31T07:26:49.521Z,51.60
2018-12-31T07:29:19.998Z,51.40
2018-12-31T07:31:50.537Z,51.40
2018-12-31T07:34:21.245Z,51.50
2018-12-31T07:36:49.023Z,51.20
2018-12-31T07:39:18.086Z,51.40
2018-12-31T07:41:50.203Z,51.40
2018-12-31T07:44:20.836Z,51.50
2018-12-31T07:46:48.970Z,51.40
2018-12-31T07:49:17.808Z,51.10
2018-12-31T07:51:49.017Z,51.40
2018-12-31T07:54:19.889Z,51.40
2018-12-31T07:56:51.721Z,51.50
2018-12-31T07:59:22.478Z,51.60
2018-12-31T08:01:50.251Z,51.50
2018-12-31T08:04:21.105Z,51.40
2018-12-31T08:06:54.742Z,51.30
2018-12-31T08:09:22.578Z,51.50
2018-12-31T08:11:50.367Z,51.50
2018-12-31T08:14:18.186Z,51.30
2018-12-31T08:16:45.988Z,51.40
2018-12-31T08:19:13.787Z,51.30
2018-12-31T08:21:44.630Z,51.40
2018-12-31T08:24:12.419Z,51.20
2018-12-31T08:26:40.576Z,51.30
2018-12-31T08:29:08.400Z,51.50
2018-12-31T08:31:36.628Z,51.30
2018-12-31T08:34:04.448Z,50.50
2018-12-31T08:36:32.218Z,49.70
2018-12-31T08:39:00.019Z,49.80
2018-12-31T08:41:27.798Z,50.30
2018-12-31T08:43:55.591Z,50.80
2018-12-31T08:46:23.372Z,50.60
2018-12-31T08:48:54.102Z,50.60
2018-12-31T08:51:21.876Z,50.50
2018-12-31T08:53:49.666Z,50.40
2018-12-31T08:56:20.432Z,50.50
2018-12-31T08:58:48.286Z,50.80
2018-12-31T09:01:16.066Z,50.60
2018-12-31T09:03:43.858Z,50.50
2018-12-31T09:06:14.403Z,50.50
2018-12-31T09:08:42.183Z,50.60
2018-12-31T09:11:09.965Z,50.60
2018-12-31T09:13:40.555Z,50.60
2018-12-31T09:16:08.320Z,50.70
2018-12-31T09:18:36.158Z,50.50
2018-12-31T09:21:06.836Z,50.70
2018-12-31T09:23:35.050Z,50.70
2018-12-31T09:26:03.155Z,50.60
2018-12-31T09:28:30.955Z,50.80
2018-12-31T09:30:58.734Z,51.00
2018-12-31T09:33:26.835Z,51.00
2018-12-31T09:35:54.921Z,51.40
2018-12-31T09:38:22.742Z,51.20
2018-12-31T09:40:50.540Z,50.90
2018-12-31T09:43:21.682Z,51.70
2018-12-31T09:45:49.515Z,51.30
2018-12-31T09:48:20.272Z,51.00
2018-12-31T09:50:49.702Z,51.20
2018-12-31T09:53:20.208Z,51.10
2018-12-31T09:55:49.633Z,50.80
2018-12-31T09:58:17.800Z,50.10
2018-12-31T10:00:45.582Z,50.00
2018-12-31T10:03:13.703Z,50.60
2018-12-31T10:05:41.482Z,50.80
2018-12-31T10:08:10.156Z,51.20
2018-12-31T10:10:37.940Z,51.40
2018-12-31T10:13:05.740Z,51.30
2018-12-31T10:15:33.518Z,50.90
2018-12-31T10:18:01.456Z,51.00
2018-12-31T10:20:32.293Z,50.60
2018-12-31T10:23:00.147Z,50.80
2018-12-31T10:25:27.924Z,50.60
2018-12-31T10:27:55.731Z,50.50
2018-12-31T10:30:26.520Z,50.70
2018-12-31T10:32:54.310Z,50.60
2018-12-31T10:35:22.161Z,50.70
2018-12-31T10:37:49.928Z,50.60
2018-12-31T10:40:19.405Z,50.70
2018-12-31T10:42:49.260Z,50.90
2018-12-31T10:45:18.854Z,50.80
2018-12-31T10:47:50.204Z,50.90
2018-12-31T10:50:18.088Z,50.90
2018-12-31T10:52:49.386Z,50.80
2018-12-31T10:55:19.522Z,50.90
2018-12-31T10:57:50.254Z,50.80
2018-12-31T11:00:18.038Z,51.00
2018-12-31T11:02:46.267Z,51.00
2018-12-31T11:05:14.033Z,51.00
2018-12-31T11:07:41.880Z,50.90
2018-12-31T11:10:09.696Z,51.00
2018-12-31T11:12:38.290Z,51.00
2018-12-31T11:15:08.784Z,50.90
2018-12-31T11:17:36.909Z,51.00
2018-12-31T11:20:08.107Z,50.90
2018-12-31T11:22:35.881Z,51.00
2018-12-31T11:25:03.784Z,50.90
2018-12-31T11:27:31.556Z,50.80
2018-12-31T11:29:59.373Z,50.70
2018-12-31T11:32:27.154Z,51.00
2018-12-31T11:34:58.250Z,50.90
2018-12-31T11:37:26.036Z,50.90
2018-12-31T11:39:53.901Z,50.90
2018-12-31T11:42:24.611Z,50.90
2018-12-31T11:44:55.345Z,50.90
2018-12-31T11:47:23.151Z,50.80
2018-12-31T11:49:50.928Z,50.80
2018-12-31T11:52:21.494Z,50.60
2018-12-31T11:54:49.307Z,50.60
2018-12-31T11:57:19.920Z,50.50
2018-12-31T11:59:47.937Z,50.60
2018-12-31T12:02:23.684Z,50.70
2018-12-31T12:04:51.178Z,51.40
2018-12-31T12:07:18.957Z,50.80
2018-12-31T12:09:48.027Z,50.80
2018-12-31T12:12:16.235Z,50.80
2018-12-31T12:14:44.019Z,50.90
2018-12-31T12:17:11.794Z,50.80
2018-12-31T12:19:39.573Z,50.80
2018-12-31T12:22:07.361Z,50.70
2018-12-31T12:24:35.527Z,50.80
2018-12-31T12:27:06.650Z,50.90
2018-12-31T12:29:34.445Z,50.80
2018-12-31T12:32:02.227Z,50.80
2018-12-31T12:34:30.318Z,50.90
2018-12-31T12:36:58.095Z,50.90
2018-12-31T12:39:26.180Z,50.80
2018-12-31T12:41:54.005Z,50.80
2018-12-31T12:44:21.777Z,50.80
2018-12-31T12:46:49.560Z,50.80
2018-12-31T12:49:17.707Z,50.90
2018-12-31T12:51:48.412Z,50.90
2018-12-31T12:54:18.967Z,50.60
2018-12-31T12:56:48.558Z,51.30
2018-12-31T12:59:18.829Z,50.80
2018-12-31T13:01:46.358Z,50.50
2018-12-31T13:04:14.644Z,50.70
2018-12-31T13:06:42.833Z,51.30
2018-12-31T13:09:13.724Z,50.80
2018-12-31T13:11:41.876Z,50.70
2018-12-31T13:14:12.811Z,50.90
2018-12-31T13:16:40.811Z,50.70
2018-12-31T13:19:08.963Z,51.50
2018-12-31T13:21:36.745Z,50.80
2018-12-31T13:24:04.512Z,50.70
2018-12-31T13:26:32.680Z,50.70
2018-12-31T13:29:00.755Z,50.80
2018-12-31T13:31:31.221Z,50.80
2018-12-31T13:34:01.714Z,50.90
2018-12-31T13:36:29.500Z,50.80
2018-12-31T13:38:57.297Z,50.80
2018-12-31T13:41:25.111Z,50.80
2018-12-31T13:43:52.892Z,50.90
2018-12-31T13:46:20.722Z,50.70
2018-12-31T13:48:51.284Z,50.70
2018-12-31T13:51:21.734Z,50.70
2018-12-31T13:53:52.511Z,50.80
2018-12-31T13:56:20.474Z,50.90
2018-12-31T13:58:50.949Z,50.80
2018-12-31T14:01:21.760Z,50.80
2018-12-31T14:03:52.632Z,50.60
2018-12-31T14:06:20.435Z,50.40
2018-12-31T14:08:48.282Z,50.70
2018-12-31T14:11:16.115Z,51.00
2018-12-31T14:13:46.554Z,50.70
2018-12-31T14:16:14.331Z,50.40
2018-12-31T14:18:45.510Z,50.60
2018-12-31T14:21:16.254Z,50.40
2018-12-31T14:23:48.661Z,50.60
2018-12-31T14:26:16.164Z,50.70
2018-12-31T14:28:46.979Z,50.50
2018-12-31T14:31:14.766Z,50.60
2018-12-31T14:33:48.722Z,50.60
2018-12-31T14:36:16.504Z,50.70
2018-12-31T14:38:44.289Z,50.70
2018-12-31T14:41:12.512Z,50.60
2018-12-31T14:43:40.312Z,50.70
2018-12-31T14:46:08.155Z,50.70
2018-12-31T14:48:35.931Z,50.60
2018-12-31T14:51:06.526Z,50.80
2018-12-31T14:53:34.311Z,50.80
2018-12-31T14:56:05.251Z,50.70
2018-12-31T14:58:33.033Z,50.80
2018-12-31T15:01:03.572Z,50.90
2018-12-31T15:03:31.359Z,51.10
2018-12-31T15:05:59.140Z,50.90
2018-12-31T15:08:26.921Z,51.10
2018-12-31T15:10:54.704Z,51.00
2018-12-31T15:13:22.479Z,51.00
2018-12-31T15:15:50.682Z,50.90
2018-12-31T15:18:18.732Z,51.00
2018-12-31T15:20:47.839Z,50.90
2018-12-31T15:23:21.557Z,51.10
2018-12-31T15:25:49.339Z,51.00
2018-12-31T15:28:19.706Z,50.90
2018-12-31T15:30:50.208Z,50.90
2018-12-31T15:33:21.004Z,50.70
2018-12-31T15:35:50.771Z,50.80
2018-12-31T15:38:20.199Z,51.00
2018-12-31T15:40:49.616Z,51.10
2018-12-31T15:43:18.583Z,51.00
2018-12-31T15:45:46.371Z,51.10
2018-12-31T15:48:18.818Z,50.90
2018-12-31T15:50:49.069Z,50.80
2018-12-31T15:53:18.497Z,51.00
2018-12-31T15:55:49.286Z,50.80
2018-12-31T15:58:17.182Z,51.30
2018-12-31T16:00:45.002Z,50.80
2018-12-31T16:03:15.745Z,50.90
2018-12-31T16:05:43.532Z,50.80
2018-12-31T16:08:14.989Z,50.60
2018-12-31T16:10:42.782Z,50.80
2018-12-31T16:13:10.559Z,50.90
2018-12-31T16:16:30.774Z,50.90
2018-12-31T16:19:10.728Z,50.90
2018-12-31T16:24:43.794Z,51.00
2018-12-31T16:27:11.592Z,50.90
2018-12-31T16:29:39.843Z,50.90
2018-12-31T16:32:10.355Z,51.30
2018-12-31T16:34:38.137Z,51.20
2018-12-31T16:37:05.917Z,51.00
2018-12-31T16:39:37.123Z,50.90
2018-12-31T16:42:08.704Z,51.00
2018-12-31T16:44:37.387Z,51.00
2018-12-31T16:47:08.804Z,50.90
2018-12-31T16:49:36.580Z,51.10
2018-12-31T16:52:07.202Z,51.10
2018-12-31T16:54:37.955Z,51.00
2018-12-31T16:57:05.755Z,51.10
2018-12-31T16:59:36.274Z,51.10
2018-12-31T17:02:08.148Z,51.10
2018-12-31T17:04:36.102Z,51.10
2018-12-31T17:07:06.650Z,51.10
2018-12-31T17:09:34.426Z,51.10
2018-12-31T17:12:04.925Z,51.20
2018-12-31T17:14:33.016Z,51.10
2018-12-31T17:17:00.813Z,51.20
2018-12-31T17:19:31.683Z,51.20
2018-12-31T17:22:02.508Z,51.30
2018-12-31T17:24:30.298Z,51.20
2018-12-31T17:26:58.091Z,51.20
2018-12-31T17:29:25.926Z,51.10
2018-12-31T17:31:53.894Z,51.10
2018-12-31T17:34:24.702Z,51.20
2018-12-31T17:36:52.524Z,51.20
2018-12-31T17:39:23.015Z,51.30
2018-12-31T17:41:53.736Z,51.30
2018-12-31T17:44:24.581Z,51.30
2018-12-31T17:46:55.084Z,51.40
2018-12-31T17:49:25.860Z,51.30
2018-12-31T17:51:56.366Z,51.30
2018-12-31T17:54:24.191Z,51.30
2018-12-31T17:56:54.924Z,51.30
2018-12-31T17:59:22.775Z,51.40
2018-12-31T18:01:53.551Z,51.30
2018-12-31T18:04:21.342Z,51.40
2018-12-31T18:06:49.122Z,51.40
2018-12-31T18:09:18.052Z,51.50
2018-12-31T18:11:50.301Z,51.50
2018-12-31T18:14:19.093Z,51.40
2018-12-31T18:16:49.789Z,51.50
2018-12-31T18:19:20.824Z,51.50
2018-12-31T18:21:48.670Z,51.50
2018-12-31T18:24:16.446Z,51.60
2018-12-31T18:26:44.653Z,51.60
2018-12-31T18:29:12.432Z,51.50
2018-12-31T18:31:40.275Z,51.70
2018-12-31T18:34:08.090Z,51.60
2018-12-31T18:36:35.882Z,51.60
2018-12-31T18:39:05.328Z,51.60
2018-12-31T18:41:36.253Z,52.30
2018-12-31T18:44:04.035Z,51.60
2018-12-31T18:46:32.218Z,51.60
2018-12-31T18:48:59.983Z,51.40
2018-12-31T18:51:27.821Z,51.60
2018-12-31T18:53:55.613Z,51.60
2018-12-31T18:56:23.487Z,51.60
2018-12-31T18:58:51.286Z,51.60
2018-12-31T19:01:21.729Z,51.70
2018-12-31T19:03:49.552Z,51.60
2018-12-31T19:06:20.068Z,51.70
2018-12-31T19:08:50.987Z,51.80
2018-12-31T19:11:21.641Z,51.80
2018-12-31T19:13:49.464Z,51.80
2018-12-31T19:16:19.897Z,51.90
2018-12-31T19:18:47.694Z,52.00
2018-12-31T19:21:15.472Z,51.90
2018-12-31T19:23:43.258Z,52.00
2018-12-31T19:26:11.042Z,52.00
2018-12-31T19:28:40.836Z,52.30
2018-12-31T19:31:08.606Z,52.50
2018-12-31T19:33:36.411Z,52.30
2018-12-31T19:36:04.174Z,52.20
2018-12-31T19:38:32.269Z,52.20
2018-12-31T19:41:00.042Z,52.10
2018-12-31T19:43:27.832Z,52.10
2018-12-31T19:45:55.985Z,52.10
2018-12-31T19:48:23.779Z,53.00
2018-12-31T19:50:51.878Z,52.50
2018-12-31T19:53:19.984Z,52.30
2018-12-31T19:55:50.748Z,52.30
2018-12-31T19:58:21.608Z,52.30
2018-12-31T20:00:52.087Z,52.20
2018-12-31T20:03:27.116Z,52.10
2018-12-31T20:05:54.885Z,52.00
2018-12-31T20:08:22.677Z,52.00
2018-12-31T20:10:50.453Z,52.00
2018-12-31T20:13:20.958Z,52.50
2018-12-31T20:15:52.129Z,52.00
2018-12-31T20:18:20.153Z,52.00
2018-12-31T20:20:50.910Z,52.00
2018-12-31T20:23:21.814Z,52.00
2018-12-31T20:25:49.611Z,52.10
2018-12-31T20:28:20.372Z,52.00
2018-12-31T20:30:48.181Z,52.10
2018-12-31T20:33:22.039Z,52.10
2018-12-31T20:35:49.905Z,52.10
2018-12-31T20:38:17.774Z,52.20
2018-12-31T20:40:51.022Z,52.20
2018-12-31T20:43:21.993Z,52.20
2018-12-31T20:45:52.433Z,52.10
2018-12-31T20:48:20.231Z,52.10
2018-12-31T20:50:51.440Z,52.20
2018-12-31T20:53:19.232Z,52.20
2018-12-31T20:55:50.284Z,52.30
2018-12-31T20:58:20.876Z,52.30
2018-12-31T21:00:50.291Z,52.20
2018-12-31T21:03:20.879Z,52.20
2018-12-31T21:05:51.824Z,52.40
2018-12-31T21:08:19.976Z,52.30
2018-12-31T21:10:47.993Z,52.40
2018-12-31T21:13:20.307Z,52.40
2018-12-31T21:15:49.732Z,52.50
2018-12-31T21:18:20.216Z,52.40
2018-12-31T21:20:49.699Z,53.10
2018-12-31T21:23:20.145Z,52.50
2018-12-31T21:25:49.667Z,52.60
2018-12-31T21:28:20.128Z,52.70
2018-12-31T21:30:52.529Z,52.70
2018-12-31T21:33:20.320Z,52.80
2018-12-31T21:35:52.445Z,52.80
2018-12-31T21:38:20.218Z,52.90
2018-12-31T21:40:51.328Z,52.90
2018-12-31T21:43:19.404Z,52.90
2018-12-31T21:45:49.173Z,52.90
2018-12-31T21:48:19.967Z,53.00
2018-12-31T21:50:50.576Z,53.00
2018-12-31T21:53:21.265Z,53.30
2018-12-31T21:55:52.756Z,53.10
2018-12-31T21:58:20.537Z,53.20
2018-12-31T22:00:51.012Z,53.30
2018-12-31T22:03:20.416Z,53.30
2018-12-31T22:05:48.261Z,53.30
2018-12-31T22:08:19.213Z,53.50
2018-12-31T22:10:48.954Z,53.60
2018-12-31T22:13:16.424Z,53.50
2018-12-31T22:15:44.203Z,53.40
2018-12-31T22:18:11.985Z,53.70
2018-12-31T22:20:39.785Z,53.60
2018-12-31T22:23:07.559Z,53.60
2018-12-31T22:25:38.145Z,53.70
2018-12-31T22:28:05.938Z,53.80
2018-12-31T22:30:33.714Z,53.80
2018-12-31T22:33:01.494Z,53.80
2018-12-31T22:35:29.896Z,53.90
2018-12-31T22:37:57.731Z,54.00
2018-12-31T22:40:25.737Z,53.80
2018-12-31T22:42:53.524Z,53.90
2018-12-31T22:45:21.330Z,53.80
2018-12-31T22:47:49.200Z,53.90
2018-12-31T22:50:19.823Z,54.00
2018-12-31T22:52:50.823Z,54.00
2018-12-31T22:55:21.320Z,54.00
2018-12-31T22:57:51.858Z,54.10
2018-12-31T23:00:21.620Z,54.70
2018-12-31T23:02:49.393Z,54.10
2018-12-31T23:05:19.857Z,54.10
2018-12-31T23:07:50.667Z,54.20
2018-12-31T23:10:21.368Z,54.20
2018-12-31T23:12:49.251Z,54.20
2018-12-31T23:15:17.642Z,54.20
2018-12-31T23:17:50.156Z,54.20
2018-12-31T23:20:20.651Z,54.30
2018-12-31T23:22:48.459Z,54.40
2018-12-31T23:25:19.030Z,54.40
2018-12-31T23:27:49.560Z,54.50
2018-12-31T23:30:17.734Z,54.40
2018-12-31T23:32:45.542Z,54.40
2018-12-31T23:35:13.339Z,54.50
2018-12-31T23:37:41.839Z,54.60
2018-12-31T23:40:12.562Z,54.60
2018-12-31T23:42:43.078Z,54.60
2018-12-31T23:45:13.863Z,54.60
2018-12-31T23:47:44.906Z,54.60
2018-12-31T23:50:12.702Z,54.60
2018-12-31T23:52:43.522Z,54.60
2018-12-31T23:55:14.324Z,54.60
2018-12-31T23:57:44.903Z,54.80
